Berrien Springs, MI (49103)

3:19 PM EST on December 06, 2016 (GMT -0500)
Cole Farm | | Change Station

Elev 725 ft 41.94 °N, 86.41 °W | Updated 14 seconds ago

Clear
Clear
42.3 °F
Feels Like 36 °F
N
12.1
Wind Variable Wind from SW
Gusts 12.1 mph

Today
High -- | Low -- °F
--% Chance of Precip.
Yesterday
High -- | Low -- °F
Precip. -- in
Pressure 29.73 in
Visibility 7.0 miles
Clouds Clear
Windchill 36 °F
Dew Point 33 °F
Humidity 69%
Rainfall 0.00 in
Snow Depth Not available.
7:59 AM 5:14 PM
Waxing Crescent, 44% visible
METAR KBEH 061953Z AUTO 21005KT 7SM CLR 06/M01 A2971 RMK AO2 SLP066 T00561006
Pressure 29.73 in
Visibility 7.0 miles
Clouds Clear
Windchill 36 °F
Dew Point 33 °F
Humidity 69%
Rainfall 0.00 in
Snow Depth Not available.
7:59 AM 5:14 PM
Waxing Crescent, 44% visible
METAR KBEH 061953Z AUTO 21005KT 7SM CLR 06/M01 A2971 RMK AO2 SLP066 T00561006

10-Day Weather Forecast

Almanac

Astronomy

Dec. 06, 2016 Rise Set
Actual Time
Civil Twilight
Nautical Twilight
Astronomical Twilight
Moon
Length of Visible Light
Length of Day
Tomorrow will be .
, % of the Moon is Illuminated

Today's Extremes

State Highs State Lows

Community

WunderPhotos

Upload Photos

1,956,022 photos uploaded!

WunderBlog® & News

Nearby

Air Quality

  Air Quality AQ Index Pollutant
Not available.

Snow Depth

Station Depth Elevation

Earthquake Activity

City Distance Mag. Time & Date
Minimum magnitude displayed is 2.5.

Coastal Water Temperatures

Place Temperature

Stations

Nearby Weather Stations

Station Location Temp. Windchill Dew Point Humidity Wind Precip. Elev Updated Type
                   

Watches & Warnings

There are currently no watches in effect.